Time;durP1;ratioP1;P1;durP2;ratioP2;P2;SDS_P1;SDS_P2;PMS_P1;PMS_P2;Temp;Humidity;BMP_temperature;BMP_pressure;BME280_temperature;BME280_humidity;BME280_pressure;Samples;Min_cycle;Max_cycle;Signal;HPM_P1;HPM_P2
2022/03/10 00:00:02;;;;;;;;;;;6.50;52.60;;;;;;5036411;28;19955;-66
2022/03/10 00:02:27;;;;;;;;;;;6.60;51.50;;;;;;5036237;28;19951;-66
2022/03/10 00:04:53;;;;;;;;;;;6.60;51.60;;;;;;5036342;28;19953;-66
2022/03/10 00:07:18;;;;;;;;;;;6.40;53.00;;;;;;5036402;28;20004;-65
2022/03/10 00:09:44;;;;;;;;;;;6.40;53.50;;;;;;5036128;28;19909;-65
2022/03/10 00:12:10;;;;;;;;;;;6.30;53.30;;;;;;5036133;28;19913;-65
2022/03/10 00:14:35;;;;;;;;;;;6.30;52.90;;;;;;5036313;28;19913;-65
2022/03/10 00:17:01;;;;;;;;;;;6.40;52.40;;;;;;5036019;28;20055;-66
2022/03/10 00:19:26;;;;;;;;;;;6.40;52.60;;;;;;5035913;28;19916;-67
2022/03/10 00:21:52;;;;;;;;;;;6.50;52.40;;;;;;5036048;28;19932;-69
2022/03/10 00:24:20;;;;;;;;;;;6.70;51.60;;;;;;5035989;28;19917;-66
2022/03/10 00:26:46;;;;;;;;;;;6.80;51.40;;;;;;5035724;28;19968;-65
2022/03/10 00:29:11;;;;;;;;;;;6.90;51.30;;;;;;5035731;28;20319;-65
2022/03/10 00:31:37;;;;;;;;;;;6.70;51.30;;;;;;5035920;28;19909;-66
2022/03/10 00:34:03;;;;;;;;;;;6.50;52.20;;;;;;5036099;28;19909;-66
2022/03/10 00:36:29;;;;;;;;;;;6.40;52.90;;;;;;5035884;28;19917;-66
2022/03/10 00:38:54;;;;;;;;;;;6.20;54.00;;;;;;5035620;28;19909;-65
2022/03/10 00:41:21;;;;;;;;;;;6.20;53.40;;;;;;5035765;28;19945;-65
2022/03/10 00:43:47;;;;;;;;;;;6.50;52.50;;;;;;5035739;28;20277;-65
2022/03/10 00:46:12;;;;;;;;;;;6.80;51.30;;;;;;5035284;28;19909;-66
2022/03/10 00:48:38;;;;;;;;;;;6.80;50.40;;;;;;5035698;28;19909;-67
2022/03/10 00:51:04;;;;;;;;;;;6.80;50.30;;;;;;5035653;28;19963;-66
2022/03/10 00:53:29;;;;;;;;;;;6.90;50.10;;;;;;5035369;28;20008;-65
2022/03/10 00:55:55;;;;;;;;;;;6.80;50.80;;;;;;5035416;28;19909;-71
2022/03/10 00:58:20;;;;;;;;;;;6.60;51.50;;;;;;5033796;28;19917;-65
2022/03/10 01:00:46;;;;;;;;;;;6.40;51.90;;;;;;5035551;28;20005;-65
2022/03/10 01:03:12;;;;;;;;;;;6.20;53.20;;;;;;5035238;28;19909;-65
2022/03/10 01:05:37;;;;;;;;;;;6.20;53.10;;;;;;5035181;28;20353;-68
2022/03/10 01:08:03;;;;;;;;;;;6.40;52.10;;;;;;5035224;28;19909;-66
2022/03/10 01:10:29;;;;;;;;;;;6.60;51.30;;;;;;5035316;28;19920;-65
2022/03/10 01:12:54;;;;;;;;;;;6.60;50.60;;;;;;5035051;28;20033;-65
2022/03/10 01:15:21;;;;;;;;;;;6.60;51.10;;;;;;5035686;28;19909;-65
2022/03/10 01:17:47;;;;;;;;;;;6.70;50.70;;;;;;5035377;28;20013;-65
2022/03/10 01:20:12;;;;;;;;;;;6.70;50.60;;;;;;5035134;28;20354;-65
2022/03/10 01:22:38;;;;;;;;;;;6.70;50.40;;;;;;5034758;28;19971;-68
2022/03/10 01:25:04;;;;;;;;;;;6.70;51.20;;;;;;5034964;28;19917;-65
2022/03/10 01:27:30;;;;;;;;;;;6.50;51.00;;;;;;5034670;28;19963;-64
2022/03/10 01:29:55;;;;;;;;;;;6.20;52.20;;;;;;5034904;28;19913;-65
2022/03/10 01:32:21;;;;;;;;;;;6.30;52.10;;;;;;5034615;28;20016;-65
2022/03/10 01:34:47;;;;;;;;;;;6.30;51.70;;;;;;5034787;28;19955;-66
2022/03/10 01:37:12;;;;;;;;;;;6.50;51.30;;;;;;5034758;28;19986;-65
2022/03/10 01:39:38;;;;;;;;;;;6.50;50.40;;;;;;5035112;28;19916;-65
2022/03/10 01:42:06;;;;;;;;;;;6.60;50.20;;;;;;5034423;28;19913;-65
2022/03/10 01:44:33;;;;;;;;;;;6.30;51.10;;;;;;5034596;28;19916;-66
2022/03/10 01:46:58;;;;;;;;;;;6.10;52.70;;;;;;5034415;28;19909;-65
2022/03/10 01:49:24;;;;;;;;;;;6.00;53.00;;;;;;5034270;28;20249;-65
2022/03/10 01:51:50;;;;;;;;;;;5.90;53.50;;;;;;5034256;28;19916;-65
2022/03/10 01:54:16;;;;;;;;;;;5.80;54.30;;;;;;5034488;28;19909;-65
2022/03/10 01:56:41;;;;;;;;;;;5.80;55.00;;;;;;5034238;28;19921;-65
2022/03/10 01:59:07;;;;;;;;;;;5.60;55.30;;;;;;5033351;28;19917;-65
2022/03/10 02:01:33;;;;;;;;;;;5.50;56.10;;;;;;5034012;28;19909;-65
2022/03/10 02:03:58;;;;;;;;;;;5.50;55.60;;;;;;5034389;28;19920;-65
2022/03/10 02:06:24;;;;;;;;;;;5.40;55.50;;;;;;5034365;28;19916;-66
2022/03/10 02:11:36;;;;;;;;;;;6.00;52.40;;;;;;5034510;28;20423;-65
2022/03/10 02:17:19;;;;;;;;;;;6.30;51.30;;;;;;5033998;28;19909;-66
2022/03/10 02:19:31;;;;;;;;;;;6.30;51.60;;;;;;5033748;28;19917;-66
2022/03/10 02:21:57;;;;;;;;;;;6.20;51.90;;;;;;5033693;28;19909;-66
2022/03/10 02:24:24;;;;;;;;;;;6.20;51.90;;;;;;5033811;28;20030;-66
2022/03/10 02:26:49;;;;;;;;;;;6.10;52.00;;;;;;5033717;28;19948;-65
2022/03/10 02:29:15;;;;;;;;;;;6.00;51.90;;;;;;5033709;28;20369;-66
2022/03/10 02:31:41;;;;;;;;;;;6.00;51.90;;;;;;5034099;28;19978;-65
2022/03/10 02:34:09;;;;;;;;;;;6.00;51.90;;;;;;5033657;28;19955;-65
2022/03/10 02:36:34;;;;;;;;;;;6.00;51.90;;;;;;5032319;28;20292;-66
2022/03/10 02:39:00;;;;;;;;;;;6.20;50.90;;;;;;5033993;28;19915;-65
2022/03/10 02:41:25;;;;;;;;;;;6.20;50.90;;;;;;5033914;28;20369;-65
2022/03/10 02:43:51;;;;;;;;;;;6.30;51.10;;;;;;5033735;28;19967;-66
2022/03/10 02:46:16;;;;;;;;;;;6.20;50.30;;;;;;5033631;28;20296;-65
2022/03/10 02:48:42;;;;;;;;;;;6.30;50.20;;;;;;5033361;28;20272;-67
2022/03/10 02:51:07;;;;;;;;;;;6.10;51.80;;;;;;5033368;28;19913;-66
2022/03/10 02:53:33;;;;;;;;;;;6.20;50.50;;;;;;5033414;28;19948;-66
2022/03/10 02:55:58;;;;;;;;;;;6.20;50.40;;;;;;5033608;28;19919;-66
2022/03/10 02:58:24;;;;;;;;;;;5.90;51.80;;;;;;5033407;28;19917;-66
2022/03/10 03:00:50;;;;;;;;;;;6.00;51.70;;;;;;5033247;28;19932;-66
2022/03/10 03:03:15;;;;;;;;;;;6.10;51.10;;;;;;5033454;28;19909;-68
2022/03/10 03:05:41;;;;;;;;;;;6.10;51.10;;;;;;5033561;28;19909;-66
2022/03/10 03:08:08;;;;;;;;;;;6.10;51.40;;;;;;5033377;28;20220;-66
2022/03/10 03:10:36;;;;;;;;;;;5.90;51.90;;;;;;5036346;28;19920;-65
2022/03/10 03:13:02;;;;;;;;;;;5.80;51.60;;;;;;5037403;28;19960;-66
2022/03/10 03:15:28;;;;;;;;;;;5.70;52.20;;;;;;5037580;28;19916;-66
2022/03/10 03:17:54;;;;;;;;;;;5.90;52.00;;;;;;5037113;28;20371;-65
2022/03/10 03:20:20;;;;;;;;;;;5.80;52.20;;;;;;5037227;28;19913;-65
2022/03/10 03:22:45;;;;;;;;;;;5.80;52.20;;;;;;5037408;28;19909;-65
2022/03/10 03:25:14;;;;;;;;;;;5.70;52.10;;;;;;5036977;28;19945;-65
2022/03/10 03:27:41;;;;;;;;;;;5.70;52.30;;;;;;5037051;28;19913;-66
2022/03/10 03:30:07;;;;;;;;;;;5.70;51.60;;;;;;5036970;28;19956;-65
2022/03/10 03:32:33;;;;;;;;;;;6.00;51.10;;;;;;5036914;28;19909;-65
2022/03/10 03:34:59;;;;;;;;;;;5.90;50.50;;;;;;5035704;28;20371;-65
2022/03/10 03:37:24;;;;;;;;;;;5.90;51.50;;;;;;5036943;28;19917;-65
2022/03/10 03:39:50;;;;;;;;;;;5.80;52.00;;;;;;5037284;28;19955;-66
2022/03/10 03:42:15;;;;;;;;;;;5.70;52.00;;;;;;5036887;28;20357;-65
2022/03/10 03:44:41;;;;;;;;;;;5.70;52.20;;;;;;5037004;28;19941;-66
2022/03/10 03:47:06;;;;;;;;;;;5.80;51.90;;;;;;5036646;28;19909;-65
2022/03/10 03:49:32;;;;;;;;;;;5.60;52.60;;;;;;5036644;28;20398;-65
2022/03/10 03:51:57;;;;;;;;;;;5.30;53.50;;;;;;5036864;28;19932;-65
2022/03/10 03:54:24;;;;;;;;;;;5.10;54.20;;;;;;5036779;28;19909;-65
2022/03/10 03:56:50;;;;;;;;;;;5.10;54.60;;;;;;5036396;28;19928;-66
2022/03/10 03:59:15;;;;;;;;;;;5.00;54.90;;;;;;5036588;28;19909;-66
2022/03/10 04:01:41;;;;;;;;;;;5.10;54.60;;;;;;5036411;28;19909;-65
2022/03/10 04:04:07;;;;;;;;;;;5.10;54.90;;;;;;5036598;28;19917;-65
2022/03/10 04:06:32;;;;;;;;;;;5.00;54.90;;;;;;5036529;28;19988;-66
2022/03/10 04:08:58;;;;;;;;;;;4.90;55.80;;;;;;5036477;28;19956;-65
2022/03/10 04:11:24;;;;;;;;;;;4.80;56.40;;;;;;5036676;28;20408;-66
2022/03/10 04:13:50;;;;;;;;;;;4.90;55.70;;;;;;5035052;28;19917;-66
2022/03/10 04:16:15;;;;;;;;;;;5.10;54.60;;;;;;5036570;28;20209;-66
2022/03/10 04:18:41;;;;;;;;;;;5.40;53.00;;;;;;5036094;28;19921;-67
2022/03/10 04:21:07;;;;;;;;;;;5.60;51.20;;;;;;5035170;28;19963;-67
2022/03/10 04:23:32;;;;;;;;;;;5.70;50.70;;;;;;5036305;28;20349;-66
2022/03/10 04:25:58;;;;;;;;;;;5.70;50.70;;;;;;5036288;28;19921;-66
2022/03/10 04:28:24;;;;;;;;;;;5.60;51.00;;;;;;5036171;28;19955;-65
2022/03/10 04:30:50;;;;;;;;;;;5.70;51.80;;;;;;5036042;28;19909;-65
2022/03/10 04:33:16;;;;;;;;;;;5.60;52.00;;;;;;5036173;28;19909;-65
2022/03/10 04:35:41;;;;;;;;;;;5.60;52.30;;;;;;5036228;28;19914;-65
2022/03/10 04:38:07;;;;;;;;;;;5.60;51.40;;;;;;5035811;28;20288;-65
2022/03/10 04:40:33;;;;;;;;;;;5.60;51.70;;;;;;5035768;28;19909;-65
2022/03/10 04:42:59;;;;;;;;;;;5.60;51.80;;;;;;5036069;28;19971;-65
2022/03/10 04:45:24;;;;;;;;;;;5.50;52.30;;;;;;5035938;28;19909;-66
2022/03/10 04:47:50;;;;;;;;;;;5.30;53.10;;;;;;5035680;28;20279;-65
2022/03/10 04:50:16;;;;;;;;;;;5.40;53.70;;;;;;5035908;28;20306;-66
2022/03/10 04:52:42;;;;;;;;;;;5.30;53.90;;;;;;5035376;28;20281;-65
2022/03/10 04:55:09;;;;;;;;;;;5.30;53.90;;;;;;5035856;28;19916;-65
2022/03/10 04:57:35;;;;;;;;;;;5.20;54.30;;;;;;5035616;28;19917;-65
2022/03/10 05:00:08;;;;;;;;;;;5.00;54.70;;;;;;5035375;28;19932;-65
2022/03/10 05:02:33;;;;;;;;;;;5.10;54.70;;;;;;5035715;28;19909;-66
2022/03/10 05:04:59;;;;;;;;;;;5.00;54.90;;;;;;5035566;28;19913;-65
2022/03/10 05:07:25;;;;;;;;;;;5.00;55.30;;;;;;5035385;28;19913;-65
2022/03/10 05:09:50;;;;;;;;;;;5.00;54.50;;;;;;5035505;28;19910;-65
2022/03/10 05:12:16;;;;;;;;;;;5.10;53.80;;;;;;5035313;28;19909;-65
2022/03/10 05:14:41;;;;;;;;;;;5.20;53.40;;;;;;5035255;28;20006;-65
2022/03/10 05:17:07;;;;;;;;;;;5.30;52.50;;;;;;5035062;28;19917;-65
2022/03/10 05:19:32;;;;;;;;;;;5.30;52.00;;;;;;5035053;28;19955;-67
2022/03/10 05:21:58;;;;;;;;;;;5.50;51.90;;;;;;5035069;28;19916;-65
2022/03/10 05:24:24;;;;;;;;;;;5.60;51.30;;;;;;5035191;28;20004;-65
2022/03/10 05:26:49;;;;;;;;;;;5.70;50.80;;;;;;5034908;28;19970;-65
2022/03/10 05:29:15;;;;;;;;;;;5.80;50.70;;;;;;5035087;28;19910;-65
2022/03/10 05:31:41;;;;;;;;;;;5.90;50.10;;;;;;5034857;28;20320;-66
2022/03/10 05:34:07;;;;;;;;;;;6.10;50.00;;;;;;5035195;28;19909;-65
2022/03/10 05:36:34;;;;;;;;;;;6.00;49.90;;;;;;5034988;28;20284;-65
2022/03/10 05:39:00;;;;;;;;;;;5.80;50.50;;;;;;5034818;28;20327;-66
2022/03/10 05:41:26;;;;;;;;;;;5.80;50.60;;;;;;5035057;28;20319;-65
2022/03/10 05:43:51;;;;;;;;;;;5.80;50.80;;;;;;5034467;28;19916;-66
2022/03/10 05:46:17;;;;;;;;;;;5.80;50.20;;;;;;5035151;28;20011;-65
2022/03/10 05:48:42;;;;;;;;;;;5.80;51.00;;;;;;5034840;28;19909;-65
2022/03/10 05:51:08;;;;;;;;;;;5.70;51.70;;;;;;5034868;28;19909;-65
2022/03/10 05:53:34;;;;;;;;;;;5.70;52.00;;;;;;5034444;28;19909;-65
2022/03/10 05:55:59;;;;;;;;;;;5.70;51.40;;;;;;5034698;28;19913;-65
2022/03/10 05:58:25;;;;;;;;;;;5.80;50.70;;;;;;5034516;28;19917;-65
2022/03/10 06:00:50;;;;;;;;;;;5.90;50.50;;;;;;5036979;28;19913;-65
2022/03/10 06:03:16;;;;;;;;;;;5.80;51.50;;;;;;5036802;28;19942;-65
2022/03/10 06:05:41;;;;;;;;;;;5.80;51.10;;;;;;5034652;28;20258;-66
2022/03/10 06:08:07;;;;;;;;;;;6.00;50.40;;;;;;5034397;28;19995;-66
2022/03/10 06:10:33;;;;;;;;;;;6.10;49.80;;;;;;5034820;28;19909;-66
2022/03/10 06:12:58;;;;;;;;;;;6.20;49.70;;;;;;5034187;28;19909;-66
2022/03/10 06:15:24;;;;;;;;;;;6.00;50.40;;;;;;5034407;28;19920;-65
2022/03/10 06:17:49;;;;;;;;;;;5.80;51.60;;;;;;5034379;28;19927;-66
2022/03/10 06:20:15;;;;;;;;;;;5.80;51.70;;;;;;5034419;28;19916;-65
2022/03/10 06:22:41;;;;;;;;;;;5.80;51.40;;;;;;5034156;28;19916;-65
2022/03/10 06:25:07;;;;;;;;;;;5.80;51.20;;;;;;5034100;28;20276;-65
2022/03/10 06:27:33;;;;;;;;;;;5.90;51.00;;;;;;5034237;28;19948;-65
2022/03/10 06:29:58;;;;;;;;;;;5.80;52.10;;;;;;5034014;28;19919;-66
2022/03/10 06:32:24;;;;;;;;;;;5.70;52.70;;;;;;5033842;28;19916;-66
2022/03/10 06:34:51;;;;;;;;;;;5.90;56.00;;;;;;5033944;28;19916;-61
2022/03/10 06:37:18;;;;;;;;;;;6.20;55.00;;;;;;5033794;28;19917;-66
2022/03/10 06:39:44;;;;;;;;;;;6.50;52.60;;;;;;5033837;28;19909;-64
2022/03/10 06:42:09;;;;;;;;;;;6.70;51.00;;;;;;5033633;28;19920;-62
2022/03/10 06:44:36;;;;;;;;;;;6.80;51.30;;;;;;5033096;28;20238;-62
2022/03/10 06:47:03;;;;;;;;;;;6.90;51.50;;;;;;5033503;28;20011;-61
2022/03/10 06:49:29;;;;;;;;;;;7.00;51.40;;;;;;5033361;28;19916;-64
2022/03/10 06:51:54;;;;;;;;;;;7.10;51.20;;;;;;5033442;28;19909;-65
2022/03/10 06:54:20;;;;;;;;;;;7.10;51.00;;;;;;5032670;28;19959;-66
2022/03/10 06:56:46;;;;;;;;;;;6.90;51.90;;;;;;5033016;28;19913;-65
2022/03/10 06:59:12;;;;;;;;;;;7.00;52.40;;;;;;5032885;28;19914;-64
2022/03/10 07:01:38;;;;;;;;;;;7.30;52.50;;;;;;5032755;28;19992;-64
2022/03/10 07:04:03;;;;;;;;;;;7.60;52.00;;;;;;5033236;28;19940;-65
2022/03/10 07:06:29;;;;;;;;;;;8.00;51.70;;;;;;5032681;28;19921;-64
2022/03/10 07:08:54;;;;;;;;;;;8.30;51.30;;;;;;5032586;28;19910;-66
2022/03/10 07:11:20;;;;;;;;;;;8.70;51.00;;;;;;5033276;28;19909;-64
2022/03/10 07:13:46;;;;;;;;;;;8.90;50.30;;;;;;5032942;28;19917;-64
2022/03/10 07:16:12;;;;;;;;;;;9.20;49.50;;;;;;5033135;28;19909;-67
2022/03/10 07:18:38;;;;;;;;;;;9.40;49.30;;;;;;5033144;28;19940;-69
2022/03/10 07:21:04;;;;;;;;;;;9.70;48.20;;;;;;5033196;28;20004;-67
2022/03/10 07:23:30;;;;;;;;;;;9.90;47.60;;;;;;5032951;28;19919;-68
2022/03/10 07:25:55;;;;;;;;;;;10.00;48.40;;;;;;5032782;28;19921;-70
2022/03/10 07:28:21;;;;;;;;;;;10.00;47.50;;;;;;5033129;28;19909;-68
2022/03/10 07:30:47;;;;;;;;;;;10.20;45.40;;;;;;5033164;28;20275;-68
2022/03/10 07:33:12;;;;;;;;;;;10.40;44.40;;;;;;5032203;28;19929;-68
2022/03/10 07:35:38;;;;;;;;;;;10.60;45.50;;;;;;5031186;28;20369;-69
2022/03/10 07:38:03;;;;;;;;;;;10.80;45.00;;;;;;5032377;28;20025;-70
2022/03/10 07:40:29;;;;;;;;;;;10.40;42.20;;;;;;5032428;28;20391;-69
2022/03/10 07:42:55;;;;;;;;;;;10.30;42.40;;;;;;5031880;28;20277;-66
2022/03/10 07:45:20;;;;;;;;;;;10.50;42.20;;;;;;5032373;28;19980;-64
2022/03/10 07:47:46;;;;;;;;;;;10.50;41.60;;;;;;5029345;28;19920;-71
2022/03/10 07:50:11;;;;;;;;;;;10.80;41.40;;;;;;5032262;28;20276;-70
2022/03/10 07:52:37;;;;;;;;;;;11.00;41.20;;;;;;5032231;28;20384;-65
2022/03/10 07:55:04;;;;;;;;;;;10.90;40.40;;;;;;5032572;28;20287;-71
2022/03/10 07:57:29;;;;;;;;;;;10.60;41.40;;;;;;5034912;28;20388;-72
2022/03/10 07:59:55;;;;;;;;;;;10.50;42.20;;;;;;5036067;28;19948;-72
2022/03/10 08:02:21;;;;;;;;;;;10.90;42.50;;;;;;5036154;28;20369;-71
2022/03/10 08:04:47;;;;;;;;;;;11.30;42.10;;;;;;5036356;28;20035;-63
2022/03/10 08:07:12;;;;;;;;;;;11.60;41.10;;;;;;5036282;28;19913;-68
2022/03/10 08:09:38;;;;;;;;;;;11.70;39.20;;;;;;5037523;28;20403;-63
2022/03/10 08:12:04;;;;;;;;;;;11.70;39.00;;;;;;5037860;28;19948;-70
2022/03/10 08:14:30;;;;;;;;;;;11.80;39.00;;;;;;5038083;28;20028;-70
2022/03/10 08:16:55;;;;;;;;;;;12.00;39.00;;;;;;5037917;28;19941;-62
2022/03/10 08:19:21;;;;;;;;;;;12.20;39.00;;;;;;5037409;28;19916;-67
2022/03/10 08:21:47;;;;;;;;;;;12.40;38.40;;;;;;5035209;28;19913;-65
2022/03/10 08:24:13;;;;;;;;;;;12.60;38.00;;;;;;5036132;28;19913;-67
2022/03/10 08:26:39;;;;;;;;;;;12.70;37.00;;;;;;5036080;28;19925;-67
2022/03/10 08:29:05;;;;;;;;;;;12.40;35.90;;;;;;5036573;28;19909;-66
2022/03/10 08:31:30;;;;;;;;;;;12.10;37.20;;;;;;5035655;28;19953;-66
2022/03/10 08:33:56;;;;;;;;;;;11.60;38.30;;;;;;5035679;28;20356;-67
2022/03/10 08:36:21;;;;;;;;;;;11.40;40.20;;;;;;5035721;28;20319;-67
2022/03/10 08:38:47;;;;;;;;;;;11.50;40.90;;;;;;5035615;28;19917;-67
2022/03/10 08:41:12;;;;;;;;;;;11.60;40.90;;;;;;5035408;28;19916;-67
2022/03/10 08:43:38;;;;;;;;;;;11.90;40.90;;;;;;5036150;28;20332;-70
2022/03/10 08:46:05;;;;;;;;;;;12.20;41.30;;;;;;5034325;28;19916;-67
2022/03/10 08:48:32;;;;;;;;;;;12.40;41.00;;;;;;5036174;28;19910;-67
2022/03/10 08:51:01;;;;;;;;;;;12.70;41.50;;;;;;5035788;28;19912;-66
2022/03/10 08:53:26;;;;;;;;;;;12.30;40.10;;;;;;5035885;28;19928;-67
2022/03/10 08:55:52;;;;;;;;;;;12.00;41.50;;;;;;5035363;28;20000;-66
2022/03/10 08:58:18;;;;;;;;;;;12.00;42.40;;;;;;5035330;28;20304;-66
2022/03/10 09:00:44;;;;;;;;;;;12.30;42.50;;;;;;5033844;28;19959;-66
2022/03/10 09:03:10;;;;;;;;;;;12.60;42.20;;;;;;5035067;28;19960;-66
2022/03/10 09:05:37;;;;;;;;;;;12.80;42.00;;;;;;5035625;28;19909;-67
2022/03/10 09:08:03;;;;;;;;;;;12.70;41.00;;;;;;5036500;28;20356;-66
2022/03/10 09:10:28;;;;;;;;;;;12.20;41.40;;;;;;5036606;28;19916;-66
2022/03/10 09:12:54;;;;;;;;;;;11.90;42.40;;;;;;5036496;28;19991;-66
2022/03/10 09:15:21;;;;;;;;;;;12.10;43.10;;;;;;5035134;28;20426;-67
2022/03/10 09:17:47;;;;;;;;;;;12.40;43.80;;;;;;5034974;28;20019;-66
2022/03/10 09:20:13;;;;;;;;;;;12.60;44.30;;;;;;5034734;28;19945;-64
2022/03/10 09:22:39;;;;;;;;;;;12.10;44.90;;;;;;5034895;28;19909;-65
2022/03/10 09:25:08;;;;;;;;;;;11.80;45.20;;;;;;5034708;28;19920;-64
2022/03/10 09:27:37;;;;;;;;;;;11.60;46.20;;;;;;5035682;28;20320;-68
2022/03/10 09:30:03;;;;;;;;;;;11.60;45.30;;;;;;5036743;28;19975;-68
2022/03/10 09:32:33;;;;;;;;;;;11.50;44.40;;;;;;5035054;28;19916;-65
2022/03/10 09:34:58;;;;;;;;;;;11.50;42.70;;;;;;5034747;28;19909;-68
2022/03/10 09:37:24;;;;;;;;;;;11.50;42.30;;;;;;5034595;28;19971;-70
2022/03/10 09:39:50;;;;;;;;;;;11.50;43.00;;;;;;5034413;28;19996;-68
2022/03/10 09:42:17;;;;;;;;;;;11.60;43.70;;;;;;5034492;28;19910;-65
2022/03/10 09:44:45;;;;;;;;;;;12.00;44.10;;;;;;5034330;28;20340;-67
2022/03/10 09:47:10;;;;;;;;;;;12.10;44.50;;;;;;5034430;28;19974;-70
2022/03/10 09:49:36;;;;;;;;;;;11.90;43.30;;;;;;5032857;28;19909;-62
2022/03/10 09:52:01;;;;;;;;;;;11.70;41.20;;;;;;5034305;28;19909;-70
2022/03/10 09:54:28;;;;;;;;;;;11.90;41.70;;;;;;5034716;28;19948;-60
2022/03/10 09:56:54;;;;;;;;;;;11.90;40.90;;;;;;5035858;28;19925;-61
2022/03/10 09:59:20;;;;;;;;;;;12.00;40.00;;;;;;5036101;28;20301;-60
2022/03/10 10:01:46;;;;;;;;;;;11.80;40.90;;;;;;5034777;28;19960;-63
2022/03/10 10:04:11;;;;;;;;;;;11.70;41.80;;;;;;5034733;28;20261;-61
2022/03/10 10:06:56;;;;;;;;;;;11.90;41.40;;;;;;5034474;28;19948;-61
2022/03/10 10:09:21;;;;;;;;;;;11.70;41.50;;;;;;5035804;28;19909;-68
2022/03/10 10:11:47;;;;;;;;;;;11.70;41.40;;;;;;5035973;28;19916;-65
2022/03/10 10:14:31;;;;;;;;;;;11.80;40.40;;;;;;5035090;28;19940;-63
2022/03/10 10:16:57;;;;;;;;;;;11.90;39.80;;;;;;5034827;28;19909;-62
2022/03/10 10:19:26;;;;;;;;;;;11.90;39.90;;;;;;5034559;28;19909;-62
2022/03/10 10:22:27;;;;;;;;;;;12.10;37.40;;;;;;5034040;28;19959;-63
2022/03/10 10:24:57;;;;;;;;;;;12.20;36.10;;;;;;4992220;28;19944;-67
2022/03/10 10:27:27;;;;;;;;;;;12.30;40.00;;;;;;5026438;28;19909;-64
2022/03/10 10:29:54;;;;;;;;;;;12.70;40.10;;;;;;5034022;28;19963;-66
2022/03/10 10:32:29;;;;;;;;;;;13.00;39.20;;;;;;5033767;28;20008;-61
2022/03/10 10:35:15;;;;;;;;;;;12.90;38.50;;;;;;5033731;28;19963;-63
2022/03/10 10:37:48;;;;;;;;;;;12.90;37.60;;;;;;5033680;28;20410;-61
2022/03/10 10:40:20;;;;;;;;;;;12.60;37.20;;;;;;5033513;28;20237;-62
2022/03/10 10:42:45;;;;;;;;;;;12.70;37.70;;;;;;5033571;28;19909;-61
2022/03/10 10:45:30;;;;;;;;;;;12.50;36.80;;;;;;5033668;28;20015;-59
2022/03/10 10:48:06;;;;;;;;;;;12.40;36.90;;;;;;5033368;28;20268;-60
2022/03/10 10:50:33;;;;;;;;;;;12.70;35.40;;;;;;5033291;28;19909;-59
2022/03/10 10:52:58;;;;;;;;;;;12.60;34.60;;;;;;5033569;28;19909;-61
2022/03/10 10:55:55;;;;;;;;;;;12.90;35.10;;;;;;5033587;28;20408;-62
2022/03/10 10:58:23;;;;;;;;;;;12.80;33.90;;;;;;5032637;28;20327;-60
2022/03/10 11:00:49;;;;;;;;;;;13.10;34.50;;;;;;5033207;28;19932;-58
2022/03/10 11:03:25;;;;;;;;;;;13.00;33.80;;;;;;5033662;28;20004;-59
2022/03/10 11:05:51;;;;;;;;;;;13.00;33.90;;;;;;5033360;28;19916;-61
2022/03/10 11:08:17;;;;;;;;;;;12.90;35.30;;;;;;5033567;28;19913;-60
2022/03/10 11:10:43;;;;;;;;;;;12.70;36.00;;;;;;5033337;28;19909;-60
2022/03/10 11:13:09;;;;;;;;;;;13.10;36.30;;;;;;5033488;28;19916;-62
2022/03/10 11:15:34;;;;;;;;;;;13.40;36.90;;;;;;5035994;28;20369;-60
2022/03/10 11:18:00;;;;;;;;;;;13.70;36.50;;;;;;5036964;28;20381;-69
2022/03/10 11:20:27;;;;;;;;;;;13.90;34.50;;;;;;5035512;28;19917;-60
2022/03/10 11:22:55;;;;;;;;;;;13.70;35.50;;;;;;5033087;28;19910;-79
2022/03/10 11:25:24;;;;;;;;;;;13.80;36.60;;;;;;5032442;28;19925;-60
2022/03/10 11:27:51;;;;;;;;;;;13.80;36.00;;;;;;5032455;28;19943;-60
2022/03/10 11:30:18;;;;;;;;;;;13.30;36.10;;;;;;5033073;28;19913;-61
2022/03/10 11:32:58;;;;;;;;;;;13.20;35.60;;;;;;5036288;28;20020;-60
2022/03/10 11:35:28;;;;;;;;;;;13.10;35.70;;;;;;5035397;28;20289;-63
2022/03/10 11:37:53;;;;;;;;;;;13.10;35.50;;;;;;5033921;28;19921;-60
2022/03/10 11:40:38;;;;;;;;;;;13.10;35.00;;;;;;5036195;28;19976;-60
2022/03/10 11:43:03;;;;;;;;;;;13.40;35.40;;;;;;5035321;28;19910;-60
2022/03/10 11:45:30;;;;;;;;;;;13.60;33.30;;;;;;5035927;28;20307;-60
2022/03/10 11:48:18;;;;;;;;;;;13.80;32.80;;;;;;5036014;28;19951;-60
2022/03/10 11:50:43;;;;;;;;;;;13.90;32.30;;;;;;5026791;28;19916;-60
2022/03/10 11:53:12;;;;;;;;;;;14.10;32.30;;;;;;5036083;28;19913;-60
2022/03/10 11:55:38;;;;;;;;;;;14.20;32.50;;;;;;5035907;28;20349;-62
2022/03/10 11:58:05;;;;;;;;;;;14.20;31.80;;;;;;5035890;28;19917;-59
2022/03/10 12:00:47;;;;;;;;;;;14.10;32.70;;;;;;5035978;28;19991;-61
2022/03/10 12:03:24;;;;;;;;;;;14.40;32.80;;;;;;5033322;28;19999;-61
2022/03/10 12:05:50;;;;;;;;;;;14.30;33.20;;;;;;5035903;28;20419;-61
2022/03/10 12:08:19;;;;;;;;;;;14.40;33.30;;;;;;5035968;28;19909;-61
2022/03/10 12:10:47;;;;;;;;;;;14.40;32.90;;;;;;5035680;28;19951;-60
2022/03/10 12:13:31;;;;;;;;;;;14.50;33.70;;;;;;5033270;28;19910;-60
2022/03/10 12:15:58;;;;;;;;;;;14.50;34.80;;;;;;5033823;28;19909;-60
2022/03/10 12:18:51;;;;;;;;;;;14.50;36.30;;;;;;5034578;28;19921;-61
2022/03/10 12:21:27;;;;;;;;;;;14.10;38.30;;;;;;5031127;28;19909;-60
2022/03/10 12:23:58;;;;;;;;;;;13.90;39.10;;;;;;5033126;28;19909;-61
2022/03/10 12:26:27;;;;;;;;;;;13.70;40.60;;;;;;5035489;28;19921;-60
2022/03/10 12:29:01;;;;;;;;;;;13.90;40.20;;;;;;5033145;28;19909;-61
2022/03/10 12:31:32;;;;;;;;;;;13.80;40.90;;;;;;5035771;28;19909;-62
2022/03/10 12:34:09;;;;;;;;;;;14.10;41.20;;;;;;5035846;28;20007;-61
2022/03/10 12:36:37;;;;;;;;;;;14.10;41.20;;;;;;5035876;28;19955;-63
2022/03/10 12:39:12;;;;;;;;;;;14.20;41.30;;;;;;5035802;28;20475;-61
2022/03/10 12:41:47;;;;;;;;;;;14.10;40.20;;;;;;5036170;28;19909;-61
2022/03/10 12:44:13;;;;;;;;;;;14.10;40.40;;;;;;5047598;28;19916;-60
2022/03/10 12:46:41;;;;;;;;;;;14.10;41.20;;;;;;5049110;28;19909;-59
2022/03/10 12:49:07;;;;;;;;;;;13.80;41.50;;;;;;5029183;28;19909;-60
2022/03/10 12:51:37;;;;;;;;;;;13.90;41.30;;;;;;5027962;28;19910;-60
2022/03/10 12:54:05;;;;;;;;;;;14.00;40.50;;;;;;5026405;28;19917;-64
2022/03/10 12:56:49;;;;;;;;;;;14.20;40.20;;;;;;5021949;28;19963;-65
2022/03/10 12:59:32;;;;;;;;;;;14.40;38.60;;;;;;5034399;28;20392;-62
2022/03/10 13:02:13;;;;;;;;;;;14.50;38.30;;;;;;5034240;28;20296;-61
2022/03/10 13:04:58;;;;;;;;;;;14.50;38.70;;;;;;5035006;28;20262;-61
2022/03/10 13:07:28;;;;;;;;;;;14.10;37.80;;;;;;5034832;28;19910;-58
2022/03/10 13:09:54;;;;;;;;;;;14.10;38.50;;;;;;5034807;28;19931;-62
2022/03/10 13:12:24;;;;;;;;;;;14.10;38.60;;;;;;5034974;28;19913;-61
2022/03/10 13:14:49;;;;;;;;;;;13.60;39.70;;;;;;5034708;28;19924;-59
2022/03/10 13:17:15;;;;;;;;;;;13.50;41.10;;;;;;5034411;28;19916;-62
2022/03/10 13:19:41;;;;;;;;;;;13.50;40.60;;;;;;5034691;28;19913;-59
2022/03/10 13:22:06;;;;;;;;;;;13.60;41.80;;;;;;5034727;28;19909;-64
2022/03/10 13:24:41;;;;;;;;;;;13.60;40.20;;;;;;5034543;28;20292;-60
2022/03/10 13:27:10;;;;;;;;;;;13.80;39.90;;;;;;5034432;28;20360;-60
2022/03/10 13:29:36;;;;;;;;;;;13.70;39.80;;;;;;5034546;28;19909;-62
2022/03/10 13:32:02;;;;;;;;;;;13.90;39.10;;;;;;5034349;28;20257;-59
2022/03/10 13:34:28;;;;;;;;;;;13.80;37.70;;;;;;5034383;28;19913;-60
2022/03/10 13:36:53;;;;;;;;;;;13.90;37.70;;;;;;5034053;28;20011;-58
2022/03/10 13:39:26;;;;;;;;;;;13.90;37.70;;;;;;5034142;28;20376;-59
2022/03/10 13:41:51;;;;;;;;;;;14.00;37.00;;;;;;5034206;28;20327;-59
2022/03/10 13:44:17;;;;;;;;;;;14.20;35.50;;;;;;5034296;28;19921;-59
2022/03/10 13:46:43;;;;;;;;;;;14.10;34.30;;;;;;5033391;28;19909;-59
2022/03/10 13:49:21;;;;;;;;;;;13.90;35.60;;;;;;5037205;28;20351;-58
2022/03/10 13:51:48;;;;;;;;;;;13.70;36.70;;;;;;5038523;28;19909;-58
2022/03/10 13:54:14;;;;;;;;;;;13.40;36.80;;;;;;5037057;28;19913;-60
2022/03/10 13:56:44;;;;;;;;;;;13.60;36.10;;;;;;5038964;28;19909;-59
2022/03/10 13:59:10;;;;;;;;;;;13.60;36.10;;;;;;5033972;28;20428;-57
2022/03/10 14:01:37;;;;;;;;;;;13.30;34.90;;;;;;5033913;28;19956;-62
2022/03/10 14:04:17;;;;;;;;;;;13.30;34.40;;;;;;5034016;28;19916;-59
2022/03/10 14:06:46;;;;;;;;;;;13.40;34.00;;;;;;5033492;28;19962;-59
2022/03/10 14:09:21;;;;;;;;;;;12.90;36.20;;;;;;5033660;28;20357;-57
2022/03/10 14:11:47;;;;;;;;;;;12.80;35.50;;;;;;5033441;28;20386;-59
2022/03/10 14:14:15;;;;;;;;;;;13.10;36.10;;;;;;5032878;28;19909;-59
2022/03/10 14:16:51;;;;;;;;;;;13.00;35.20;;;;;;5033569;28;19920;-60
2022/03/10 14:19:21;;;;;;;;;;;13.00;34.90;;;;;;5033647;28;19940;-61
2022/03/10 14:21:50;;;;;;;;;;;13.00;35.50;;;;;;5034204;28;19909;-58
2022/03/10 14:24:23;;;;;;;;;;;12.90;34.30;;;;;;5033576;28;20368;-61
2022/03/10 14:26:50;;;;;;;;;;;12.90;34.60;;;;;;5033064;28;20027;-59
2022/03/10 14:29:16;;;;;;;;;;;12.80;34.00;;;;;;5032845;28;19909;-59